sensor_id;sensor_type;location;lat;lon;timestamp;P1;durP1;ratioP1;P2;durP2;ratioP2
32533;SDS011;18973;48.580;8.912;2023-07-13T00:00:19;4.88;;;0.80;;
32533;SDS011;18973;48.580;8.912;2023-07-13T00:02:45;2.00;;;0.93;;
32533;SDS011;18973;48.580;8.912;2023-07-13T00:05:11;4.97;;;1.00;;
32533;SDS011;18973;48.580;8.912;2023-07-13T00:07:36;2.47;;;0.70;;
32533;SDS011;18973;48.580;8.912;2023-07-13T00:10:02;2.95;;;0.90;;
32533;SDS011;18973;48.580;8.912;2023-07-13T00:12:29;3.22;;;1.30;;
32533;SDS011;18973;48.580;8.912;2023-07-13T00:14:57;4.47;;;1.10;;
32533;SDS011;18973;48.580;8.912;2023-07-13T00:17:25;2.63;;;1.02;;
32533;SDS011;18973;48.580;8.912;2023-07-13T00:19:52;4.38;;;1.23;;
32533;SDS011;18973;48.580;8.912;2023-07-13T00:22:18;1.27;;;0.90;;
32533;SDS011;18973;48.580;8.912;2023-07-13T00:24:44;1.65;;;1.02;;
32533;SDS011;18973;48.580;8.912;2023-07-13T00:27:10;4.38;;;1.38;;
32533;SDS011;18973;48.580;8.912;2023-07-13T00:29:37;2.78;;;1.25;;
32533;SDS011;18973;48.580;8.912;2023-07-13T00:32:03;4.97;;;1.30;;
32533;SDS011;18973;48.580;8.912;2023-07-13T00:34:29;1.85;;;1.17;;
32533;SDS011;18973;48.580;8.912;2023-07-13T00:36:55;2.55;;;0.93;;
32533;SDS011;18973;48.580;8.912;2023-07-13T00:39:21;5.35;;;1.10;;
32533;SDS011;18973;48.580;8.912;2023-07-13T00:41:47;1.75;;;1.13;;
32533;SDS011;18973;48.580;8.912;2023-07-13T00:44:14;2.75;;;0.93;;
32533;SDS011;18973;48.580;8.912;2023-07-13T00:46:41;1.73;;;1.00;;
32533;SDS011;18973;48.580;8.912;2023-07-13T00:49:08;4.57;;;1.08;;
32533;SDS011;18973;48.580;8.912;2023-07-13T00:51:40;1.42;;;0.90;;
32533;SDS011;18973;48.580;8.912;2023-07-13T00:54:21;3.03;;;1.15;;
32533;SDS011;18973;48.580;8.912;2023-07-13T00:56:50;3.00;;;1.17;;
32533;SDS011;18973;48.580;8.912;2023-07-13T00:59:18;2.42;;;1.25;;
32533;SDS011;18973;48.580;8.912;2023-07-13T01:01:46;1.92;;;0.82;;
32533;SDS011;18973;48.580;8.912;2023-07-13T01:04:13;2.00;;;0.80;;
32533;SDS011;18973;48.580;8.912;2023-07-13T01:06:39;4.35;;;1.00;;
32533;SDS011;18973;48.580;8.912;2023-07-13T01:09:06;5.72;;;1.13;;
32533;SDS011;18973;48.580;8.912;2023-07-13T01:11:33;2.38;;;0.95;;
32533;SDS011;18973;48.580;8.912;2023-07-13T01:14:00;2.75;;;1.08;;
32533;SDS011;18973;48.580;8.912;2023-07-13T01:16:35;5.72;;;0.98;;
32533;SDS011;18973;48.580;8.912;2023-07-13T01:19:03;2.17;;;1.08;;
32533;SDS011;18973;48.580;8.912;2023-07-13T01:21:39;2.35;;;0.88;;
32533;SDS011;18973;48.580;8.912;2023-07-13T01:24:08;2.80;;;0.98;;
32533;SDS011;18973;48.580;8.912;2023-07-13T01:26:34;3.33;;;1.00;;
32533;SDS011;18973;48.580;8.912;2023-07-13T01:29:00;2.97;;;1.10;;
32533;SDS011;18973;48.580;8.912;2023-07-13T01:31:26;5.68;;;1.00;;
32533;SDS011;18973;48.580;8.912;2023-07-13T01:33:52;2.63;;;1.05;;
32533;SDS011;18973;48.580;8.912;2023-07-13T01:36:18;4.57;;;1.08;;
32533;SDS011;18973;48.580;8.912;2023-07-13T01:38:46;2.58;;;0.95;;
32533;SDS011;18973;48.580;8.912;2023-07-13T01:41:11;1.20;;;0.82;;
32533;SDS011;18973;48.580;8.912;2023-07-13T01:43:37;3.00;;;1.05;;
32533;SDS011;18973;48.580;8.912;2023-07-13T01:46:04;2.20;;;1.02;;
32533;SDS011;18973;48.580;8.912;2023-07-13T01:48:29;3.10;;;0.93;;
32533;SDS011;18973;48.580;8.912;2023-07-13T01:50:55;3.13;;;1.40;;
32533;SDS011;18973;48.580;8.912;2023-07-13T01:53:21;2.35;;;1.13;;
32533;SDS011;18973;48.580;8.912;2023-07-13T01:55:46;5.53;;;1.30;;
32533;SDS011;18973;48.580;8.912;2023-07-13T01:58:12;1.67;;;0.90;;
32533;SDS011;18973;48.580;8.912;2023-07-13T02:00:38;2.97;;;1.08;;
32533;SDS011;18973;48.580;8.912;2023-07-13T02:03:03;3.50;;;1.00;;
32533;SDS011;18973;48.580;8.912;2023-07-13T02:05:29;1.70;;;0.90;;
32533;SDS011;18973;48.580;8.912;2023-07-13T02:07:55;5.07;;;1.25;;
32533;SDS011;18973;48.580;8.912;2023-07-13T02:10:20;5.07;;;1.33;;
32533;SDS011;18973;48.580;8.912;2023-07-13T02:12:48;1.92;;;0.90;;
32533;SDS011;18973;48.580;8.912;2023-07-13T02:15:15;4.65;;;1.30;;
32533;SDS011;18973;48.580;8.912;2023-07-13T02:17:41;3.67;;;1.00;;
32533;SDS011;18973;48.580;8.912;2023-07-13T02:20:06;2.35;;;0.98;;
32533;SDS011;18973;48.580;8.912;2023-07-13T02:22:34;2.28;;;0.98;;
32533;SDS011;18973;48.580;8.912;2023-07-13T02:25:00;2.58;;;1.10;;
32533;SDS011;18973;48.580;8.912;2023-07-13T02:27:26;3.65;;;1.23;;
32533;SDS011;18973;48.580;8.912;2023-07-13T02:29:52;4.93;;;1.20;;
32533;SDS011;18973;48.580;8.912;2023-07-13T02:32:18;6.43;;;1.85;;
32533;SDS011;18973;48.580;8.912;2023-07-13T02:34:44;2.17;;;1.20;;
32533;SDS011;18973;48.580;8.912;2023-07-13T02:37:09;3.28;;;1.00;;
32533;SDS011;18973;48.580;8.912;2023-07-13T02:39:35;3.55;;;1.52;;
32533;SDS011;18973;48.580;8.912;2023-07-13T02:42:01;4.55;;;1.15;;
32533;SDS011;18973;48.580;8.912;2023-07-13T02:44:27;3.42;;;1.27;;
32533;SDS011;18973;48.580;8.912;2023-07-13T02:46:53;3.42;;;1.38;;
32533;SDS011;18973;48.580;8.912;2023-07-13T02:49:18;4.43;;;1.40;;
32533;SDS011;18973;48.580;8.912;2023-07-13T02:51:44;4.95;;;1.30;;
32533;SDS011;18973;48.580;8.912;2023-07-13T02:54:09;6.15;;;1.33;;
32533;SDS011;18973;48.580;8.912;2023-07-13T02:56:36;3.85;;;0.95;;
32533;SDS011;18973;48.580;8.912;2023-07-13T02:59:04;4.88;;;1.13;;
32533;SDS011;18973;48.580;8.912;2023-07-13T03:01:29;2.17;;;0.98;;
32533;SDS011;18973;48.580;8.912;2023-07-13T03:03:59;6.35;;;1.50;;
32533;SDS011;18973;48.580;8.912;2023-07-13T03:06:25;4.15;;;1.23;;
32533;SDS011;18973;48.580;8.912;2023-07-13T03:08:54;3.17;;;1.15;;
32533;SDS011;18973;48.580;8.912;2023-07-13T03:11:21;4.90;;;1.55;;
32533;SDS011;18973;48.580;8.912;2023-07-13T03:13:47;3.00;;;1.80;;
32533;SDS011;18973;48.580;8.912;2023-07-13T03:16:13;3.65;;;1.40;;
32533;SDS011;18973;48.580;8.912;2023-07-13T03:18:41;3.88;;;1.77;;
32533;SDS011;18973;48.580;8.912;2023-07-13T03:21:07;4.82;;;1.52;;
32533;SDS011;18973;48.580;8.912;2023-07-13T03:23:33;7.40;;;1.55;;
32533;SDS011;18973;48.580;8.912;2023-07-13T03:26:06;4.93;;;1.30;;
32533;SDS011;18973;48.580;8.912;2023-07-13T03:28:34;3.22;;;1.10;;
32533;SDS011;18973;48.580;8.912;2023-07-13T03:31:05;4.30;;;1.17;;
32533;SDS011;18973;48.580;8.912;2023-07-13T03:33:36;4.55;;;1.40;;
32533;SDS011;18973;48.580;8.912;2023-07-13T03:36:02;4.75;;;1.30;;
32533;SDS011;18973;48.580;8.912;2023-07-13T03:38:33;3.97;;;1.00;;
32533;SDS011;18973;48.580;8.912;2023-07-13T03:40:59;2.45;;;1.10;;
32533;SDS011;18973;48.580;8.912;2023-07-13T03:43:25;5.70;;;1.58;;
32533;SDS011;18973;48.580;8.912;2023-07-13T03:45:50;3.47;;;1.27;;
32533;SDS011;18973;48.580;8.912;2023-07-13T03:48:16;3.83;;;1.58;;
32533;SDS011;18973;48.580;8.912;2023-07-13T03:50:42;3.17;;;1.27;;
32533;SDS011;18973;48.580;8.912;2023-07-13T03:53:07;3.92;;;1.27;;
32533;SDS011;18973;48.580;8.912;2023-07-13T03:55:33;4.45;;;1.25;;
32533;SDS011;18973;48.580;8.912;2023-07-13T03:58:00;6.53;;;1.52;;
32533;SDS011;18973;48.580;8.912;2023-07-13T04:00:46;7.78;;;1.30;;
32533;SDS011;18973;48.580;8.912;2023-07-13T04:03:12;3.25;;;1.05;;
32533;SDS011;18973;48.580;8.912;2023-07-13T04:05:38;3.10;;;1.25;;
32533;SDS011;18973;48.580;8.912;2023-07-13T04:08:05;3.65;;;1.60;;
32533;SDS011;18973;48.580;8.912;2023-07-13T04:10:31;3.97;;;1.05;;
32533;SDS011;18973;48.580;8.912;2023-07-13T04:12:57;4.03;;;1.42;;
32533;SDS011;18973;48.580;8.912;2023-07-13T04:15:23;5.30;;;1.60;;
32533;SDS011;18973;48.580;8.912;2023-07-13T04:17:48;6.82;;;1.33;;
32533;SDS011;18973;48.580;8.912;2023-07-13T04:20:14;4.15;;;1.42;;
32533;SDS011;18973;48.580;8.912;2023-07-13T04:22:40;2.90;;;0.93;;
32533;SDS011;18973;48.580;8.912;2023-07-13T04:25:06;2.88;;;1.08;;
32533;SDS011;18973;48.580;8.912;2023-07-13T04:27:31;6.32;;;1.10;;
32533;SDS011;18973;48.580;8.912;2023-07-13T04:29:57;4.68;;;1.10;;
32533;SDS011;18973;48.580;8.912;2023-07-13T04:32:23;3.42;;;1.25;;
32533;SDS011;18973;48.580;8.912;2023-07-13T04:34:49;2.42;;;1.35;;
32533;SDS011;18973;48.580;8.912;2023-07-13T04:37:20;5.20;;;0.85;;
32533;SDS011;18973;48.580;8.912;2023-07-13T04:39:45;5.70;;;1.00;;
32533;SDS011;18973;48.580;8.912;2023-07-13T04:42:11;3.47;;;1.10;;
32533;SDS011;18973;48.580;8.912;2023-07-13T04:44:37;5.28;;;1.55;;
32533;SDS011;18973;48.580;8.912;2023-07-13T04:47:03;3.42;;;0.88;;
32533;SDS011;18973;48.580;8.912;2023-07-13T04:49:29;3.40;;;1.10;;
32533;SDS011;18973;48.580;8.912;2023-07-13T04:51:55;2.75;;;1.02;;
32533;SDS011;18973;48.580;8.912;2023-07-13T04:54:21;5.45;;;1.20;;
32533;SDS011;18973;48.580;8.912;2023-07-13T04:56:47;3.28;;;1.30;;
32533;SDS011;18973;48.580;8.912;2023-07-13T04:59:12;3.20;;;1.10;;
32533;SDS011;18973;48.580;8.912;2023-07-13T05:01:38;6.07;;;1.00;;
32533;SDS011;18973;48.580;8.912;2023-07-13T05:04:05;13.13;;;1.40;;
32533;SDS011;18973;48.580;8.912;2023-07-13T05:06:31;9.45;;;1.60;;
32533;SDS011;18973;48.580;8.912;2023-07-13T05:08:57;10.15;;;1.90;;
32533;SDS011;18973;48.580;8.912;2023-07-13T05:11:23;14.32;;;2.58;;
32533;SDS011;18973;48.580;8.912;2023-07-13T05:13:49;13.27;;;1.52;;
32533;SDS011;18973;48.580;8.912;2023-07-13T05:16:14;5.88;;;1.50;;
32533;SDS011;18973;48.580;8.912;2023-07-13T05:18:40;7.43;;;1.58;;
32533;SDS011;18973;48.580;8.912;2023-07-13T05:21:06;10.27;;;1.45;;
32533;SDS011;18973;48.580;8.912;2023-07-13T05:23:34;9.95;;;1.95;;
32533;SDS011;18973;48.580;8.912;2023-07-13T05:26:00;7.45;;;1.90;;
32533;SDS011;18973;48.580;8.912;2023-07-13T05:28:27;17.90;;;2.17;;
32533;SDS011;18973;48.580;8.912;2023-07-13T05:30:55;16.45;;;1.70;;
32533;SDS011;18973;48.580;8.912;2023-07-13T05:33:20;7.00;;;1.40;;
32533;SDS011;18973;48.580;8.912;2023-07-13T05:35:46;11.75;;;2.50;;
32533;SDS011;18973;48.580;8.912;2023-07-13T05:38:12;14.02;;;1.75;;
32533;SDS011;18973;48.580;8.912;2023-07-13T05:40:38;12.60;;;2.38;;
32533;SDS011;18973;48.580;8.912;2023-07-13T05:43:04;19.35;;;2.08;;
32533;SDS011;18973;48.580;8.912;2023-07-13T05:45:29;13.10;;;2.00;;
32533;SDS011;18973;48.580;8.912;2023-07-13T05:47:55;9.48;;;1.65;;
32533;SDS011;18973;48.580;8.912;2023-07-13T05:50:21;5.85;;;1.52;;
32533;SDS011;18973;48.580;8.912;2023-07-13T05:52:47;10.82;;;2.50;;
32533;SDS011;18973;48.580;8.912;2023-07-13T05:55:12;10.07;;;1.95;;
32533;SDS011;18973;48.580;8.912;2023-07-13T05:57:40;14.60;;;2.42;;
32533;SDS011;18973;48.580;8.912;2023-07-13T06:00:06;11.90;;;1.92;;
32533;SDS011;18973;48.580;8.912;2023-07-13T06:02:32;11.45;;;1.90;;
32533;SDS011;18973;48.580;8.912;2023-07-13T06:04:57;4.60;;;1.40;;
32533;SDS011;18973;48.580;8.912;2023-07-13T06:07:23;9.32;;;1.45;;
32533;SDS011;18973;48.580;8.912;2023-07-13T06:09:49;8.40;;;1.35;;
32533;SDS011;18973;48.580;8.912;2023-07-13T06:12:15;2.03;;;1.15;;
32533;SDS011;18973;48.580;8.912;2023-07-13T06:14:40;4.10;;;1.58;;
32533;SDS011;18973;48.580;8.912;2023-07-13T06:17:07;4.13;;;1.60;;
32533;SDS011;18973;48.580;8.912;2023-07-13T06:19:32;8.48;;;1.70;;
32533;SDS011;18973;48.580;8.912;2023-07-13T06:21:59;2.88;;;1.60;;
32533;SDS011;18973;48.580;8.912;2023-07-13T06:24:24;5.93;;;1.20;;
32533;SDS011;18973;48.580;8.912;2023-07-13T06:26:50;7.45;;;1.98;;
32533;SDS011;18973;48.580;8.912;2023-07-13T06:29:16;11.75;;;1.50;;
32533;SDS011;18973;48.580;8.912;2023-07-13T06:31:42;9.60;;;1.58;;
32533;SDS011;18973;48.580;8.912;2023-07-13T06:34:08;4.32;;;1.77;;
32533;SDS011;18973;48.580;8.912;2023-07-13T06:36:33;8.18;;;1.27;;
32533;SDS011;18973;48.580;8.912;2023-07-13T06:39:01;3.55;;;1.30;;
32533;SDS011;18973;48.580;8.912;2023-07-13T06:41:27;6.28;;;1.20;;
32533;SDS011;18973;48.580;8.912;2023-07-13T06:43:53;2.47;;;1.35;;
32533;SDS011;18973;48.580;8.912;2023-07-13T06:46:22;4.72;;;1.45;;
32533;SDS011;18973;48.580;8.912;2023-07-13T06:48:48;5.68;;;1.48;;
32533;SDS011;18973;48.580;8.912;2023-07-13T06:51:14;6.97;;;1.17;;
32533;SDS011;18973;48.580;8.912;2023-07-13T06:53:40;12.95;;;1.65;;
32533;SDS011;18973;48.580;8.912;2023-07-13T06:56:08;7.03;;;1.70;;
32533;SDS011;18973;48.580;8.912;2023-07-13T06:58:35;10.20;;;1.52;;
32533;SDS011;18973;48.580;8.912;2023-07-13T07:01:01;3.17;;;1.23;;
32533;SDS011;18973;48.580;8.912;2023-07-13T07:03:26;4.10;;;1.70;;
32533;SDS011;18973;48.580;8.912;2023-07-13T07:05:52;5.95;;;1.48;;
32533;SDS011;18973;48.580;8.912;2023-07-13T07:08:18;5.88;;;1.05;;
32533;SDS011;18973;48.580;8.912;2023-07-13T07:10:44;1.63;;;0.95;;
32533;SDS011;18973;48.580;8.912;2023-07-13T07:13:10;4.18;;;1.17;;
32533;SDS011;18973;48.580;8.912;2023-07-13T07:15:36;2.42;;;1.02;;
32533;SDS011;18973;48.580;8.912;2023-07-13T07:18:02;7.43;;;1.20;;
32533;SDS011;18973;48.580;8.912;2023-07-13T07:20:27;2.65;;;1.13;;
32533;SDS011;18973;48.580;8.912;2023-07-13T07:22:53;4.72;;;0.95;;
32533;SDS011;18973;48.580;8.912;2023-07-13T07:25:19;3.83;;;1.20;;
32533;SDS011;18973;48.580;8.912;2023-07-13T07:27:45;7.07;;;1.30;;
32533;SDS011;18973;48.580;8.912;2023-07-13T07:30:11;5.05;;;1.10;;
32533;SDS011;18973;48.580;8.912;2023-07-13T07:32:37;3.53;;;1.20;;
32533;SDS011;18973;48.580;8.912;2023-07-13T07:35:04;7.25;;;1.27;;
32533;SDS011;18973;48.580;8.912;2023-07-13T07:37:30;4.47;;;1.23;;
32533;SDS011;18973;48.580;8.912;2023-07-13T07:39:56;3.22;;;0.82;;
32533;SDS011;18973;48.580;8.912;2023-07-13T07:42:21;4.57;;;0.98;;
32533;SDS011;18973;48.580;8.912;2023-07-13T07:44:47;2.83;;;1.10;;
32533;SDS011;18973;48.580;8.912;2023-07-13T07:47:13;4.00;;;0.80;;
32533;SDS011;18973;48.580;8.912;2023-07-13T07:49:38;7.13;;;1.42;;
32533;SDS011;18973;48.580;8.912;2023-07-13T07:52:04;3.35;;;0.95;;
32533;SDS011;18973;48.580;8.912;2023-07-13T07:54:30;3.28;;;0.85;;
32533;SDS011;18973;48.580;8.912;2023-07-13T07:56:56;5.05;;;0.93;;
32533;SDS011;18973;48.580;8.912;2023-07-13T07:59:21;3.58;;;1.13;;
32533;SDS011;18973;48.580;8.912;2023-07-13T08:01:47;7.28;;;0.80;;
32533;SDS011;18973;48.580;8.912;2023-07-13T08:04:15;6.88;;;0.98;;
32533;SDS011;18973;48.580;8.912;2023-07-13T08:06:41;4.22;;;1.00;;
32533;SDS011;18973;48.580;8.912;2023-07-13T08:09:07;7.30;;;0.93;;
32533;SDS011;18973;48.580;8.912;2023-07-13T08:11:33;4.80;;;0.88;;
32533;SDS011;18973;48.580;8.912;2023-07-13T08:13:59;4.10;;;1.20;;
32533;SDS011;18973;48.580;8.912;2023-07-13T08:16:25;6.40;;;1.15;;
32533;SDS011;18973;48.580;8.912;2023-07-13T08:18:52;4.95;;;1.10;;
32533;SDS011;18973;48.580;8.912;2023-07-13T08:21:17;6.00;;;0.70;;
32533;SDS011;18973;48.580;8.912;2023-07-13T08:23:47;3.17;;;1.38;;
32533;SDS011;18973;48.580;8.912;2023-07-13T08:26:12;5.75;;;1.33;;
32533;SDS011;18973;48.580;8.912;2023-07-13T08:28:38;1.88;;;0.85;;
32533;SDS011;18973;48.580;8.912;2023-07-13T08:31:04;3.33;;;0.98;;
32533;SDS011;18973;48.580;8.912;2023-07-13T08:33:33;2.00;;;0.70;;
32533;SDS011;18973;48.580;8.912;2023-07-13T08:36:01;5.10;;;1.48;;
32533;SDS011;18973;48.580;8.912;2023-07-13T08:38:27;3.30;;;0.70;;
32533;SDS011;18973;48.580;8.912;2023-07-13T08:40:53;2.90;;;0.70;;
32533;SDS011;18973;48.580;8.912;2023-07-13T08:43:23;2.55;;;0.60;;
32533;SDS011;18973;48.580;8.912;2023-07-13T08:45:53;6.63;;;1.10;;
32533;SDS011;18973;48.580;8.912;2023-07-13T08:48:25;4.30;;;1.15;;
32533;SDS011;18973;48.580;8.912;2023-07-13T08:53:24;2.03;;;0.63;;
32533;SDS011;18973;48.580;8.912;2023-07-13T08:56:00;2.92;;;0.88;;
32533;SDS011;18973;48.580;8.912;2023-07-13T08:58:26;2.40;;;0.80;;
32533;SDS011;18973;48.580;8.912;2023-07-13T09:04:05;2.85;;;0.80;;
32533;SDS011;18973;48.580;8.912;2023-07-13T09:12:14;4.25;;;0.68;;
32533;SDS011;18973;48.580;8.912;2023-07-13T09:14:47;4.28;;;0.90;;
32533;SDS011;18973;48.580;8.912;2023-07-13T09:17:20;1.80;;;0.77;;
32533;SDS011;18973;48.580;8.912;2023-07-13T09:19:53;5.90;;;0.75;;
32533;SDS011;18973;48.580;8.912;2023-07-13T09:22:35;3.40;;;0.80;;
32533;SDS011;18973;48.580;8.912;2023-07-13T09:28:15;7.93;;;0.90;;
32533;SDS011;18973;48.580;8.912;2023-07-13T09:33:21;3.22;;;1.23;;
32533;SDS011;18973;48.580;8.912;2023-07-13T09:35:47;2.20;;;0.80;;
32533;SDS011;18973;48.580;8.912;2023-07-13T09:38:17;1.90;;;0.73;;
32533;SDS011;18973;48.580;8.912;2023-07-13T09:41:04;4.30;;;0.80;;
32533;SDS011;18973;48.580;8.912;2023-07-13T09:43:34;7.05;;;0.90;;
32533;SDS011;18973;48.580;8.912;2023-07-13T09:46:00;4.03;;;0.73;;
32533;SDS011;18973;48.580;8.912;2023-07-13T09:48:26;4.15;;;0.80;;
32533;SDS011;18973;48.580;8.912;2023-07-13T09:51:04;2.65;;;0.77;;
32533;SDS011;18973;48.580;8.912;2023-07-13T09:53:38;3.17;;;0.77;;
32533;SDS011;18973;48.580;8.912;2023-07-13T09:58:52;3.50;;;0.80;;
32533;SDS011;18973;48.580;8.912;2023-07-13T10:01:39;4.05;;;0.60;;
32533;SDS011;18973;48.580;8.912;2023-07-13T10:04:10;8.25;;;0.70;;
32533;SDS011;18973;48.580;8.912;2023-07-13T10:06:40;2.78;;;0.70;;
32533;SDS011;18973;48.580;8.912;2023-07-13T10:09:08;1.55;;;0.63;;
32533;SDS011;18973;48.580;8.912;2023-07-13T10:11:34;2.78;;;0.80;;
32533;SDS011;18973;48.580;8.912;2023-07-13T10:14:03;2.53;;;0.65;;
32533;SDS011;18973;48.580;8.912;2023-07-13T10:16:39;2.92;;;0.90;;
32533;SDS011;18973;48.580;8.912;2023-07-13T10:21:49;5.85;;;0.90;;
32533;SDS011;18973;48.580;8.912;2023-07-13T10:24:27;3.95;;;0.80;;
32533;SDS011;18973;48.580;8.912;2023-07-13T10:27:01;4.50;;;0.73;;
32533;SDS011;18973;48.580;8.912;2023-07-13T10:29:40;4.20;;;1.52;;
32533;SDS011;18973;48.580;8.912;2023-07-13T10:32:18;4.13;;;0.77;;
32533;SDS011;18973;48.580;8.912;2023-07-13T10:34:46;3.92;;;1.00;;
32533;SDS011;18973;48.580;8.912;2023-07-13T10:37:25;4.80;;;0.63;;
32533;SDS011;18973;48.580;8.912;2023-07-13T10:39:55;2.42;;;0.50;;
32533;SDS011;18973;48.580;8.912;2023-07-13T10:42:33;1.92;;;0.68;;
32533;SDS011;18973;48.580;8.912;2023-07-13T10:45:04;5.30;;;0.85;;
32533;SDS011;18973;48.580;8.912;2023-07-13T10:47:40;3.80;;;1.10;;
32533;SDS011;18973;48.580;8.912;2023-07-13T10:50:07;17.27;;;1.83;;
32533;SDS011;18973;48.580;8.912;2023-07-13T10:52:49;5.05;;;1.17;;
32533;SDS011;18973;48.580;8.912;2023-07-13T10:58:22;3.45;;;0.80;;
32533;SDS011;18973;48.580;8.912;2023-07-13T11:01:03;4.68;;;0.70;;
32533;SDS011;18973;48.580;8.912;2023-07-13T11:03:54;4.22;;;0.93;;
32533;SDS011;18973;48.580;8.912;2023-07-13T11:12:00;4.88;;;0.70;;
32533;SDS011;18973;48.580;8.912;2023-07-13T11:20:08;2.58;;;0.82;;
32533;SDS011;18973;48.580;8.912;2023-07-13T11:23:06;4.72;;;0.82;;
32533;SDS011;18973;48.580;8.912;2023-07-13T11:25:41;2.47;;;0.82;;
32533;SDS011;18973;48.580;8.912;2023-07-13T11:30:43;4.70;;;1.27;;
32533;SDS011;18973;48.580;8.912;2023-07-13T11:33:25;4.38;;;0.70;;
32533;SDS011;18973;48.580;8.912;2023-07-13T11:36:05;1.77;;;0.75;;
32533;SDS011;18973;48.580;8.912;2023-07-13T11:41:15;3.50;;;0.93;;
32533;SDS011;18973;48.580;8.912;2023-07-13T11:43:41;2.65;;;0.80;;
32533;SDS011;18973;48.580;8.912;2023-07-13T11:46:14;4.22;;;0.68;;
32533;SDS011;18973;48.580;8.912;2023-07-13T11:48:44;3.78;;;0.90;;
32533;SDS011;18973;48.580;8.912;2023-07-13T11:51:15;4.10;;;1.13;;
32533;SDS011;18973;48.580;8.912;2023-07-13T11:53:53;3.88;;;0.63;;
32533;SDS011;18973;48.580;8.912;2023-07-13T11:56:20;2.42;;;0.60;;
32533;SDS011;18973;48.580;8.912;2023-07-13T11:58:51;4.03;;;0.90;;
32533;SDS011;18973;48.580;8.912;2023-07-13T12:01:20;2.88;;;0.70;;
32533;SDS011;18973;48.580;8.912;2023-07-13T12:03:48;1.30;;;0.60;;
32533;SDS011;18973;48.580;8.912;2023-07-13T12:06:21;3.08;;;0.80;;
32533;SDS011;18973;48.580;8.912;2023-07-13T12:09:01;6.47;;;1.13;;
32533;SDS011;18973;48.580;8.912;2023-07-13T12:11:39;5.93;;;0.60;;
32533;SDS011;18973;48.580;8.912;2023-07-13T12:14:12;1.20;;;0.65;;
32533;SDS011;18973;48.580;8.912;2023-07-13T12:16:40;5.47;;;0.93;;
32533;SDS011;18973;48.580;8.912;2023-07-13T12:19:09;2.78;;;1.00;;
32533;SDS011;18973;48.580;8.912;2023-07-13T12:21:52;1.42;;;1.00;;
32533;SDS011;18973;48.580;8.912;2023-07-13T12:24:21;3.03;;;0.80;;
32533;SDS011;18973;48.580;8.912;2023-07-13T12:27:32;2.20;;;0.63;;
32533;SDS011;18973;48.580;8.912;2023-07-13T12:30:04;2.63;;;1.42;;
32533;SDS011;18973;48.580;8.912;2023-07-13T12:33:01;6.30;;;0.82;;
32533;SDS011;18973;48.580;8.912;2023-07-13T12:35:54;2.40;;;0.63;;
32533;SDS011;18973;48.580;8.912;2023-07-13T12:38:20;2.92;;;0.60;;
32533;SDS011;18973;48.580;8.912;2023-07-13T12:40:48;2.67;;;0.75;;
32533;SDS011;18973;48.580;8.912;2023-07-13T12:43:16;2.20;;;1.00;;
32533;SDS011;18973;48.580;8.912;2023-07-13T12:46:03;2.55;;;0.65;;
32533;SDS011;18973;48.580;8.912;2023-07-13T12:48:41;2.92;;;0.82;;
32533;SDS011;18973;48.580;8.912;2023-07-13T12:51:13;2.47;;;0.70;;
32533;SDS011;18973;48.580;8.912;2023-07-13T12:53:41;1.48;;;0.70;;
32533;SDS011;18973;48.580;8.912;2023-07-13T12:56:18;3.15;;;0.60;;
32533;SDS011;18973;48.580;8.912;2023-07-13T12:58:47;5.88;;;0.90;;
32533;SDS011;18973;48.580;8.912;2023-07-13T13:01:19;5.32;;;0.77;;
32533;SDS011;18973;48.580;8.912;2023-07-13T13:03:49;5.07;;;1.00;;
32533;SDS011;18973;48.580;8.912;2023-07-13T13:08:45;7.80;;;1.27;;
32533;SDS011;18973;48.580;8.912;2023-07-13T13:11:22;3.10;;;0.93;;
32533;SDS011;18973;48.580;8.912;2023-07-13T13:13:48;4.65;;;0.88;;
32533;SDS011;18973;48.580;8.912;2023-07-13T13:16:35;2.33;;;0.90;;
32533;SDS011;18973;48.580;8.912;2023-07-13T13:19:13;3.13;;;0.90;;
32533;SDS011;18973;48.580;8.912;2023-07-13T13:21:42;4.68;;;0.88;;
32533;SDS011;18973;48.580;8.912;2023-07-13T13:24:12;2.88;;;0.98;;
32533;SDS011;18973;48.580;8.912;2023-07-13T13:26:39;7.10;;;0.82;;
32533;SDS011;18973;48.580;8.912;2023-07-13T13:31:40;5.55;;;0.98;;
32533;SDS011;18973;48.580;8.912;2023-07-13T13:34:15;1.65;;;0.70;;
32533;SDS011;18973;48.580;8.912;2023-07-13T13:36:42;5.78;;;0.80;;
32533;SDS011;18973;48.580;8.912;2023-07-13T13:39:27;1.38;;;0.57;;
32533;SDS011;18973;48.580;8.912;2023-07-13T13:41:57;5.45;;;2.05;;
32533;SDS011;18973;48.580;8.912;2023-07-13T13:44:23;5.03;;;1.10;;
32533;SDS011;18973;48.580;8.912;2023-07-13T13:46:53;3.90;;;0.90;;
32533;SDS011;18973;48.580;8.912;2023-07-13T13:49:26;2.08;;;0.60;;
32533;SDS011;18973;48.580;8.912;2023-07-13T13:51:53;1.73;;;0.75;;
32533;SDS011;18973;48.580;8.912;2023-07-13T13:54:20;6.40;;;0.90;;
32533;SDS011;18973;48.580;8.912;2023-07-13T13:56:48;2.85;;;0.85;;
32533;SDS011;18973;48.580;8.912;2023-07-13T13:59:14;2.47;;;0.70;;
32533;SDS011;18973;48.580;8.912;2023-07-13T14:01:41;1.35;;;0.63;;
32533;SDS011;18973;48.580;8.912;2023-07-13T14:04:10;1.98;;;0.88;;
32533;SDS011;18973;48.580;8.912;2023-07-13T14:06:43;1.95;;;0.77;;
32533;SDS011;18973;48.580;8.912;2023-07-13T14:09:10;3.15;;;0.77;;
32533;SDS011;18973;48.580;8.912;2023-07-13T14:11:38;1.55;;;0.80;;
32533;SDS011;18973;48.580;8.912;2023-07-13T14:14:17;2.35;;;0.70;;
32533;SDS011;18973;48.580;8.912;2023-07-13T14:16:49;2.92;;;0.70;;
32533;SDS011;18973;48.580;8.912;2023-07-13T14:19:18;4.43;;;0.70;;
32533;SDS011;18973;48.580;8.912;2023-07-13T14:21:44;6.80;;;0.82;;
32533;SDS011;18973;48.580;8.912;2023-07-13T14:24:10;1.95;;;0.55;;
32533;SDS011;18973;48.580;8.912;2023-07-13T14:26:40;4.82;;;0.80;;
32533;SDS011;18973;48.580;8.912;2023-07-13T14:29:13;4.00;;;1.13;;
32533;SDS011;18973;48.580;8.912;2023-07-13T14:31:42;3.08;;;0.98;;
32533;SDS011;18973;48.580;8.912;2023-07-13T14:34:09;4.78;;;0.93;;
32533;SDS011;18973;48.580;8.912;2023-07-13T14:36:40;3.95;;;0.90;;
32533;SDS011;18973;48.580;8.912;2023-07-13T14:39:13;2.42;;;1.27;;
32533;SDS011;18973;48.580;8.912;2023-07-13T14:41:41;2.50;;;0.70;;
32533;SDS011;18973;48.580;8.912;2023-07-13T14:44:26;1.73;;;0.70;;
32533;SDS011;18973;48.580;8.912;2023-07-13T14:46:54;4.00;;;0.82;;
32533;SDS011;18973;48.580;8.912;2023-07-13T14:49:35;3.92;;;0.90;;
32533;SDS011;18973;48.580;8.912;2023-07-13T14:52:09;1.55;;;0.68;;
32533;SDS011;18973;48.580;8.912;2023-07-13T14:54:41;3.20;;;0.63;;
32533;SDS011;18973;48.580;8.912;2023-07-13T14:57:12;4.93;;;1.88;;
32533;SDS011;18973;48.580;8.912;2023-07-13T14:59:40;10.18;;;1.50;;
32533;SDS011;18973;48.580;8.912;2023-07-13T15:04:46;2.83;;;1.05;;
32533;SDS011;18973;48.580;8.912;2023-07-13T15:07:12;2.28;;;0.68;;
32533;SDS011;18973;48.580;8.912;2023-07-13T15:09:40;6.25;;;0.88;;
32533;SDS011;18973;48.580;8.912;2023-07-13T15:12:06;4.88;;;0.70;;
32533;SDS011;18973;48.580;8.912;2023-07-13T15:14:32;3.13;;;0.80;;
32533;SDS011;18973;48.580;8.912;2023-07-13T15:16:58;3.53;;;1.00;;
32533;SDS011;18973;48.580;8.912;2023-07-13T15:19:24;2.45;;;1.00;;
32533;SDS011;18973;48.580;8.912;2023-07-13T15:21:51;4.57;;;1.10;;
32533;SDS011;18973;48.580;8.912;2023-07-13T15:24:19;2.58;;;0.90;;
32533;SDS011;18973;48.580;8.912;2023-07-13T15:26:46;6.32;;;1.58;;
32533;SDS011;18973;48.580;8.912;2023-07-13T15:29:14;6.13;;;1.08;;
32533;SDS011;18973;48.580;8.912;2023-07-13T15:31:40;6.47;;;0.93;;
32533;SDS011;18973;48.580;8.912;2023-07-13T15:34:13;1.57;;;0.70;;
32533;SDS011;18973;48.580;8.912;2023-07-13T15:36:41;2.20;;;0.93;;
32533;SDS011;18973;48.580;8.912;2023-07-13T15:39:08;2.80;;;1.25;;
32533;SDS011;18973;48.580;8.912;2023-07-13T15:41:41;5.93;;;0.80;;
32533;SDS011;18973;48.580;8.912;2023-07-13T15:44:19;2.17;;;0.90;;
32533;SDS011;18973;48.580;8.912;2023-07-13T15:46:57;4.95;;;0.85;;